sensor_id;sensor_type;location;lat;lon;timestamp;P1;durP1;ratioP1;P2;durP2;ratioP2
68870;SDS011;55906;52.278;6.808;2023-07-02T00:01:19;6.47;;;4.82;;
68870;SDS011;55906;52.278;6.808;2023-07-02T00:03:46;6.03;;;4.40;;
68870;SDS011;55906;52.278;6.808;2023-07-02T00:06:14;5.80;;;5.10;;
68870;SDS011;55906;52.278;6.808;2023-07-02T00:08:42;7.18;;;4.82;;
68870;SDS011;55906;52.278;6.808;2023-07-02T00:11:09;7.37;;;4.67;;
68870;SDS011;55906;52.278;6.808;2023-07-02T00:13:37;6.80;;;4.93;;
68870;SDS011;55906;52.278;6.808;2023-07-02T00:16:04;6.80;;;4.53;;
68870;SDS011;55906;52.278;6.808;2023-07-02T00:18:31;7.07;;;4.53;;
68870;SDS011;55906;52.278;6.808;2023-07-02T00:20:59;6.28;;;4.60;;
68870;SDS011;55906;52.278;6.808;2023-07-02T00:23:28;6.97;;;4.70;;
68870;SDS011;55906;52.278;6.808;2023-07-02T00:25:55;6.07;;;3.92;;
68870;SDS011;55906;52.278;6.808;2023-07-02T00:28:22;8.43;;;4.53;;
68870;SDS011;55906;52.278;6.808;2023-07-02T00:30:49;6.43;;;4.40;;
68870;SDS011;55906;52.278;6.808;2023-07-02T00:33:16;6.93;;;4.25;;
68870;SDS011;55906;52.278;6.808;2023-07-02T00:35:42;7.17;;;4.63;;
68870;SDS011;55906;52.278;6.808;2023-07-02T00:38:09;6.82;;;4.20;;
68870;SDS011;55906;52.278;6.808;2023-07-02T00:40:37;6.18;;;4.53;;
68870;SDS011;55906;52.278;6.808;2023-07-02T00:43:03;6.97;;;4.35;;
68870;SDS011;55906;52.278;6.808;2023-07-02T00:45:30;7.55;;;5.03;;
68870;SDS011;55906;52.278;6.808;2023-07-02T00:47:57;6.77;;;4.77;;
68870;SDS011;55906;52.278;6.808;2023-07-02T00:50:23;9.07;;;5.38;;
68870;SDS011;55906;52.278;6.808;2023-07-02T00:52:52;6.03;;;4.75;;
68870;SDS011;55906;52.278;6.808;2023-07-02T00:55:20;10.57;;;5.28;;
68870;SDS011;55906;52.278;6.808;2023-07-02T00:57:48;8.40;;;5.47;;
68870;SDS011;55906;52.278;6.808;2023-07-02T01:00:15;7.90;;;5.77;;
68870;SDS011;55906;52.278;6.808;2023-07-02T01:02:43;8.88;;;5.63;;
68870;SDS011;55906;52.278;6.808;2023-07-02T01:05:22;7.25;;;5.20;;
68870;SDS011;55906;52.278;6.808;2023-07-02T01:07:48;7.57;;;4.85;;
68870;SDS011;55906;52.278;6.808;2023-07-02T01:10:15;6.28;;;4.90;;
68870;SDS011;55906;52.278;6.808;2023-07-02T01:12:42;6.07;;;4.70;;
68870;SDS011;55906;52.278;6.808;2023-07-02T01:15:11;6.22;;;4.82;;
68870;SDS011;55906;52.278;6.808;2023-07-02T01:17:38;7.68;;;4.55;;
68870;SDS011;55906;52.278;6.808;2023-07-02T01:20:08;6.70;;;4.85;;
68870;SDS011;55906;52.278;6.808;2023-07-02T01:22:37;7.55;;;5.20;;
68870;SDS011;55906;52.278;6.808;2023-07-02T01:25:04;7.90;;;5.20;;
68870;SDS011;55906;52.278;6.808;2023-07-02T01:27:33;8.20;;;5.47;;
68870;SDS011;55906;52.278;6.808;2023-07-02T01:30:01;6.93;;;4.90;;
68870;SDS011;55906;52.278;6.808;2023-07-02T01:32:29;10.63;;;5.32;;
68870;SDS011;55906;52.278;6.808;2023-07-02T01:34:55;9.10;;;5.10;;
68870;SDS011;55906;52.278;6.808;2023-07-02T01:37:25;8.10;;;5.17;;
68870;SDS011;55906;52.278;6.808;2023-07-02T01:39:51;9.80;;;6.05;;
68870;SDS011;55906;52.278;6.808;2023-07-02T01:42:18;8.82;;;5.95;;
68870;SDS011;55906;52.278;6.808;2023-07-02T01:44:46;10.13;;;5.38;;
68870;SDS011;55906;52.278;6.808;2023-07-02T01:47:14;9.90;;;5.65;;
68870;SDS011;55906;52.278;6.808;2023-07-02T01:49:41;9.70;;;5.57;;
68870;SDS011;55906;52.278;6.808;2023-07-02T01:52:08;9.07;;;5.30;;
68870;SDS011;55906;52.278;6.808;2023-07-02T01:54:36;11.90;;;6.53;;
68870;SDS011;55906;52.278;6.808;2023-07-02T01:57:03;8.68;;;5.05;;
68870;SDS011;55906;52.278;6.808;2023-07-02T01:59:30;9.00;;;5.70;;
68870;SDS011;55906;52.278;6.808;2023-07-02T02:01:56;8.50;;;5.80;;
68870;SDS011;55906;52.278;6.808;2023-07-02T02:04:23;12.07;;;6.30;;
68870;SDS011;55906;52.278;6.808;2023-07-02T02:06:50;12.57;;;6.20;;
68870;SDS011;55906;52.278;6.808;2023-07-02T02:09:17;12.80;;;6.25;;
68870;SDS011;55906;52.278;6.808;2023-07-02T02:11:45;11.15;;;6.15;;
68870;SDS011;55906;52.278;6.808;2023-07-02T02:14:14;9.47;;;5.07;;
68870;SDS011;55906;52.278;6.808;2023-07-02T02:16:40;12.60;;;6.10;;
68870;SDS011;55906;52.278;6.808;2023-07-02T02:19:10;13.10;;;6.78;;
68870;SDS011;55906;52.278;6.808;2023-07-02T02:21:37;14.50;;;6.40;;
68870;SDS011;55906;52.278;6.808;2023-07-02T02:24:03;13.90;;;6.30;;
68870;SDS011;55906;52.278;6.808;2023-07-02T02:26:31;12.77;;;6.17;;
68870;SDS011;55906;52.278;6.808;2023-07-02T02:28:59;13.55;;;6.22;;
68870;SDS011;55906;52.278;6.808;2023-07-02T02:31:26;11.30;;;6.00;;
68870;SDS011;55906;52.278;6.808;2023-07-02T02:33:53;18.30;;;6.45;;
68870;SDS011;55906;52.278;6.808;2023-07-02T02:36:20;13.25;;;6.82;;
68870;SDS011;55906;52.278;6.808;2023-07-02T02:38:46;16.77;;;7.00;;
68870;SDS011;55906;52.278;6.808;2023-07-02T02:41:13;16.08;;;6.97;;
68870;SDS011;55906;52.278;6.808;2023-07-02T02:43:40;14.63;;;7.25;;
68870;SDS011;55906;52.278;6.808;2023-07-02T02:46:09;12.00;;;6.88;;
68870;SDS011;55906;52.278;6.808;2023-07-02T02:48:35;14.25;;;6.30;;
68870;SDS011;55906;52.278;6.808;2023-07-02T02:51:02;12.40;;;7.27;;
68870;SDS011;55906;52.278;6.808;2023-07-02T02:53:29;12.23;;;6.53;;
68870;SDS011;55906;52.278;6.808;2023-07-02T02:55:56;13.48;;;6.65;;
68870;SDS011;55906;52.278;6.808;2023-07-02T02:58:23;12.63;;;6.68;;
68870;SDS011;55906;52.278;6.808;2023-07-02T03:00:49;14.27;;;6.85;;
68870;SDS011;55906;52.278;6.808;2023-07-02T03:03:17;15.87;;;7.33;;
68870;SDS011;55906;52.278;6.808;2023-07-02T03:05:45;11.90;;;6.65;;
68870;SDS011;55906;52.278;6.808;2023-07-02T03:08:13;18.63;;;7.40;;
68870;SDS011;55906;52.278;6.808;2023-07-02T03:10:40;14.85;;;6.70;;
68870;SDS011;55906;52.278;6.808;2023-07-02T03:13:06;14.63;;;6.57;;
68870;SDS011;55906;52.278;6.808;2023-07-02T03:15:33;13.63;;;7.47;;
68870;SDS011;55906;52.278;6.808;2023-07-02T03:17:59;14.20;;;6.88;;
68870;SDS011;55906;52.278;6.808;2023-07-02T03:20:27;12.93;;;5.93;;
68870;SDS011;55906;52.278;6.808;2023-07-02T03:22:54;13.82;;;6.82;;
68870;SDS011;55906;52.278;6.808;2023-07-02T03:25:20;16.15;;;6.93;;
68870;SDS011;55906;52.278;6.808;2023-07-02T03:27:47;11.83;;;6.50;;
68870;SDS011;55906;52.278;6.808;2023-07-02T03:30:14;17.42;;;7.15;;
68870;SDS011;55906;52.278;6.808;2023-07-02T03:32:40;16.20;;;7.20;;
68870;SDS011;55906;52.278;6.808;2023-07-02T03:35:07;13.25;;;6.43;;
68870;SDS011;55906;52.278;6.808;2023-07-02T03:37:35;15.95;;;6.75;;
68870;SDS011;55906;52.278;6.808;2023-07-02T03:40:02;10.63;;;6.57;;
68870;SDS011;55906;52.278;6.808;2023-07-02T03:42:29;15.07;;;6.93;;
68870;SDS011;55906;52.278;6.808;2023-07-02T03:44:56;12.18;;;6.15;;
68870;SDS011;55906;52.278;6.808;2023-07-02T03:47:22;13.02;;;7.07;;
68870;SDS011;55906;52.278;6.808;2023-07-02T03:49:49;15.82;;;7.43;;
68870;SDS011;55906;52.278;6.808;2023-07-02T03:52:15;13.30;;;7.60;;
68870;SDS011;55906;52.278;6.808;2023-07-02T03:54:43;13.32;;;6.47;;
68870;SDS011;55906;52.278;6.808;2023-07-02T03:57:10;16.23;;;6.88;;
68870;SDS011;55906;52.278;6.808;2023-07-02T03:59:37;14.57;;;6.30;;
68870;SDS011;55906;52.278;6.808;2023-07-02T04:02:03;14.13;;;7.57;;
68870;SDS011;55906;52.278;6.808;2023-07-02T04:04:30;15.63;;;7.90;;
68870;SDS011;55906;52.278;6.808;2023-07-02T04:06:57;15.32;;;6.57;;
68870;SDS011;55906;52.278;6.808;2023-07-02T04:09:24;13.27;;;6.90;;
68870;SDS011;55906;52.278;6.808;2023-07-02T04:11:52;14.57;;;6.68;;
68870;SDS011;55906;52.278;6.808;2023-07-02T04:14:18;13.43;;;7.20;;
68870;SDS011;55906;52.278;6.808;2023-07-02T04:16:45;16.47;;;6.93;;
68870;SDS011;55906;52.278;6.808;2023-07-02T04:19:12;16.45;;;7.70;;
68870;SDS011;55906;52.278;6.808;2023-07-02T04:21:38;15.85;;;7.28;;
68870;SDS011;55906;52.278;6.808;2023-07-02T04:24:05;17.05;;;6.72;;
68870;SDS011;55906;52.278;6.808;2023-07-02T04:26:31;15.40;;;7.55;;
68870;SDS011;55906;52.278;6.808;2023-07-02T04:28:59;16.97;;;7.80;;
68870;SDS011;55906;52.278;6.808;2023-07-02T04:31:26;15.98;;;6.60;;
68870;SDS011;55906;52.278;6.808;2023-07-02T04:33:53;15.93;;;7.38;;
68870;SDS011;55906;52.278;6.808;2023-07-02T04:36:20;18.02;;;7.63;;
68870;SDS011;55906;52.278;6.808;2023-07-02T04:38:46;16.13;;;7.22;;
68870;SDS011;55906;52.278;6.808;2023-07-02T04:41:13;15.83;;;7.37;;
68870;SDS011;55906;52.278;6.808;2023-07-02T04:43:40;20.15;;;7.47;;
68870;SDS011;55906;52.278;6.808;2023-07-02T04:46:08;17.25;;;8.68;;
68870;SDS011;55906;52.278;6.808;2023-07-02T04:48:37;18.33;;;7.88;;
68870;SDS011;55906;52.278;6.808;2023-07-02T04:51:03;14.93;;;7.50;;
68870;SDS011;55906;52.278;6.808;2023-07-02T04:53:30;14.40;;;7.17;;
68870;SDS011;55906;52.278;6.808;2023-07-02T04:55:57;18.98;;;8.27;;
68870;SDS011;55906;52.278;6.808;2023-07-02T04:58:23;18.33;;;8.13;;
68870;SDS011;55906;52.278;6.808;2023-07-02T05:00:50;17.55;;;7.97;;
68870;SDS011;55906;52.278;6.808;2023-07-02T05:03:18;19.00;;;7.10;;
68870;SDS011;55906;52.278;6.808;2023-07-02T05:05:44;23.30;;;8.07;;
68870;SDS011;55906;52.278;6.808;2023-07-02T05:08:11;15.40;;;7.55;;
68870;SDS011;55906;52.278;6.808;2023-07-02T05:10:38;19.33;;;7.93;;
68870;SDS011;55906;52.278;6.808;2023-07-02T05:13:04;14.95;;;7.28;;
68870;SDS011;55906;52.278;6.808;2023-07-02T05:15:31;17.85;;;8.57;;
68870;SDS011;55906;52.278;6.808;2023-07-02T05:17:57;18.90;;;7.40;;
68870;SDS011;55906;52.278;6.808;2023-07-02T05:20:25;18.58;;;7.55;;
68870;SDS011;55906;52.278;6.808;2023-07-02T05:22:52;19.38;;;7.30;;
68870;SDS011;55906;52.278;6.808;2023-07-02T05:25:19;15.40;;;7.68;;
68870;SDS011;55906;52.278;6.808;2023-07-02T05:27:45;18.80;;;7.53;;
68870;SDS011;55906;52.278;6.808;2023-07-02T05:30:12;22.47;;;7.97;;
68870;SDS011;55906;52.278;6.808;2023-07-02T05:32:39;23.42;;;8.13;;
68870;SDS011;55906;52.278;6.808;2023-07-02T05:35:06;23.15;;;8.00;;
68870;SDS011;55906;52.278;6.808;2023-07-02T05:37:34;18.27;;;7.85;;
68870;SDS011;55906;52.278;6.808;2023-07-02T05:40:01;18.38;;;8.10;;
68870;SDS011;55906;52.278;6.808;2023-07-02T05:42:28;21.63;;;8.03;;
68870;SDS011;55906;52.278;6.808;2023-07-02T05:44:54;18.10;;;7.50;;
68870;SDS011;55906;52.278;6.808;2023-07-02T05:47:21;18.33;;;7.95;;
68870;SDS011;55906;52.278;6.808;2023-07-02T05:49:47;19.25;;;9.18;;
68870;SDS011;55906;52.278;6.808;2023-07-02T05:52:14;21.65;;;8.93;;
68870;SDS011;55906;52.278;6.808;2023-07-02T05:54:42;21.83;;;8.07;;
68870;SDS011;55906;52.278;6.808;2023-07-02T05:57:08;20.08;;;8.48;;
68870;SDS011;55906;52.278;6.808;2023-07-02T05:59:35;21.67;;;7.90;;
68870;SDS011;55906;52.278;6.808;2023-07-02T06:02:04;21.50;;;8.88;;
68870;SDS011;55906;52.278;6.808;2023-07-02T06:04:30;23.55;;;7.70;;
68870;SDS011;55906;52.278;6.808;2023-07-02T06:06:57;22.67;;;8.60;;
68870;SDS011;55906;52.278;6.808;2023-07-02T06:09:24;18.08;;;7.88;;
68870;SDS011;55906;52.278;6.808;2023-07-02T06:11:52;21.17;;;7.85;;
68870;SDS011;55906;52.278;6.808;2023-07-02T06:14:18;22.50;;;8.90;;
68870;SDS011;55906;52.278;6.808;2023-07-02T06:16:45;18.75;;;8.10;;
68870;SDS011;55906;52.278;6.808;2023-07-02T06:19:12;28.20;;;9.37;;
68870;SDS011;55906;52.278;6.808;2023-07-02T06:21:38;20.75;;;8.63;;
68870;SDS011;55906;52.278;6.808;2023-07-02T06:24:05;20.23;;;7.90;;
68870;SDS011;55906;52.278;6.808;2023-07-02T06:26:32;24.00;;;8.98;;
68870;SDS011;55906;52.278;6.808;2023-07-02T06:29:00;20.15;;;8.48;;
68870;SDS011;55906;52.278;6.808;2023-07-02T06:31:26;20.63;;;8.57;;
68870;SDS011;55906;52.278;6.808;2023-07-02T06:33:53;16.95;;;8.10;;
68870;SDS011;55906;52.278;6.808;2023-07-02T06:36:20;19.00;;;8.52;;
68870;SDS011;55906;52.278;6.808;2023-07-02T06:38:46;19.23;;;8.10;;
68870;SDS011;55906;52.278;6.808;2023-07-02T06:41:14;19.75;;;7.65;;
68870;SDS011;55906;52.278;6.808;2023-07-02T06:43:41;17.50;;;7.30;;
68870;SDS011;55906;52.278;6.808;2023-07-02T06:46:10;18.42;;;7.85;;
68870;SDS011;55906;52.278;6.808;2023-07-02T06:48:38;19.83;;;7.95;;
68870;SDS011;55906;52.278;6.808;2023-07-02T06:51:04;19.70;;;8.38;;
68870;SDS011;55906;52.278;6.808;2023-07-02T06:53:32;19.65;;;8.10;;
68870;SDS011;55906;52.278;6.808;2023-07-02T06:55:58;18.57;;;8.00;;
68870;SDS011;55906;52.278;6.808;2023-07-02T06:58:25;19.45;;;7.40;;
68870;SDS011;55906;52.278;6.808;2023-07-02T07:00:51;20.30;;;7.68;;
68870;SDS011;55906;52.278;6.808;2023-07-02T07:03:19;21.42;;;8.32;;
68870;SDS011;55906;52.278;6.808;2023-07-02T07:05:46;17.20;;;8.00;;
68870;SDS011;55906;52.278;6.808;2023-07-02T07:08:13;21.03;;;8.37;;
68870;SDS011;55906;52.278;6.808;2023-07-02T07:10:39;16.55;;;7.93;;
68870;SDS011;55906;52.278;6.808;2023-07-02T07:13:06;19.08;;;8.30;;
68870;SDS011;55906;52.278;6.808;2023-07-02T07:15:33;22.85;;;8.10;;
68870;SDS011;55906;52.278;6.808;2023-07-02T07:18:00;19.13;;;8.32;;
68870;SDS011;55906;52.278;6.808;2023-07-02T07:20:29;18.53;;;8.43;;
68870;SDS011;55906;52.278;6.808;2023-07-02T07:22:56;21.85;;;8.98;;
68870;SDS011;55906;52.278;6.808;2023-07-02T07:25:23;20.55;;;7.93;;
68870;SDS011;55906;52.278;6.808;2023-07-02T07:27:51;19.35;;;7.68;;
68870;SDS011;55906;52.278;6.808;2023-07-02T07:30:18;17.40;;;8.15;;
68870;SDS011;55906;52.278;6.808;2023-07-02T07:32:47;23.63;;;8.23;;
68870;SDS011;55906;52.278;6.808;2023-07-02T07:35:15;21.67;;;7.53;;
68870;SDS011;55906;52.278;6.808;2023-07-02T07:37:43;22.50;;;8.27;;
68870;SDS011;55906;52.278;6.808;2023-07-02T07:40:10;16.38;;;7.55;;
68870;SDS011;55906;52.278;6.808;2023-07-02T07:42:37;19.70;;;7.60;;
68870;SDS011;55906;52.278;6.808;2023-07-02T07:45:05;15.63;;;7.20;;
68870;SDS011;55906;52.278;6.808;2023-07-02T07:47:32;19.60;;;7.35;;
68870;SDS011;55906;52.278;6.808;2023-07-02T07:49:58;20.58;;;7.65;;
68870;SDS011;55906;52.278;6.808;2023-07-02T07:52:25;17.92;;;7.13;;
68870;SDS011;55906;52.278;6.808;2023-07-02T07:54:53;17.90;;;6.82;;
68870;SDS011;55906;52.278;6.808;2023-07-02T07:57:20;19.67;;;7.60;;
68870;SDS011;55906;52.278;6.808;2023-07-02T07:59:46;17.55;;;7.53;;
68870;SDS011;55906;52.278;6.808;2023-07-02T08:02:13;19.98;;;8.05;;
68870;SDS011;55906;52.278;6.808;2023-07-02T08:04:39;19.13;;;7.35;;
68870;SDS011;55906;52.278;6.808;2023-07-02T08:07:06;15.70;;;6.65;;
68870;SDS011;55906;52.278;6.808;2023-07-02T08:09:34;16.07;;;7.60;;
68870;SDS011;55906;52.278;6.808;2023-07-02T08:12:02;18.05;;;7.30;;
68870;SDS011;55906;52.278;6.808;2023-07-02T08:14:29;17.95;;;6.90;;
68870;SDS011;55906;52.278;6.808;2023-07-02T08:16:56;18.30;;;7.30;;
68870;SDS011;55906;52.278;6.808;2023-07-02T08:19:23;20.08;;;7.63;;
68870;SDS011;55906;52.278;6.808;2023-07-02T08:21:49;16.20;;;6.87;;
68870;SDS011;55906;52.278;6.808;2023-07-02T08:24:16;12.38;;;6.72;;
68870;SDS011;55906;52.278;6.808;2023-07-02T08:26:43;19.08;;;7.60;;
68870;SDS011;55906;52.278;6.808;2023-07-02T08:29:12;15.20;;;6.40;;
68870;SDS011;55906;52.278;6.808;2023-07-02T08:31:39;16.20;;;6.95;;
68870;SDS011;55906;52.278;6.808;2023-07-02T08:34:06;17.70;;;6.80;;
68870;SDS011;55906;52.278;6.808;2023-07-02T08:36:33;16.80;;;7.07;;
68870;SDS011;55906;52.278;6.808;2023-07-02T08:39:00;15.60;;;6.28;;
68870;SDS011;55906;52.278;6.808;2023-07-02T08:41:26;15.45;;;7.18;;
68870;SDS011;55906;52.278;6.808;2023-07-02T08:43:55;21.98;;;7.13;;
68870;SDS011;55906;52.278;6.808;2023-07-02T08:46:23;15.20;;;6.33;;
68870;SDS011;55906;52.278;6.808;2023-07-02T08:48:50;15.40;;;6.13;;
68870;SDS011;55906;52.278;6.808;2023-07-02T08:51:17;13.23;;;6.85;;
68870;SDS011;55906;52.278;6.808;2023-07-02T08:53:46;16.17;;;6.45;;
68870;SDS011;55906;52.278;6.808;2023-07-02T08:56:13;18.80;;;7.03;;
68870;SDS011;55906;52.278;6.808;2023-07-02T08:58:42;16.17;;;7.50;;
68870;SDS011;55906;52.278;6.808;2023-07-02T09:01:11;16.80;;;6.88;;
68870;SDS011;55906;52.278;6.808;2023-07-02T09:03:40;12.70;;;6.20;;
68870;SDS011;55906;52.278;6.808;2023-07-02T09:06:07;14.48;;;6.18;;
68870;SDS011;55906;52.278;6.808;2023-07-02T09:08:37;16.63;;;6.53;;
68870;SDS011;55906;52.278;6.808;2023-07-02T09:11:05;16.30;;;6.53;;
68870;SDS011;55906;52.278;6.808;2023-07-02T09:13:42;13.20;;;6.43;;
68870;SDS011;55906;52.278;6.808;2023-07-02T09:16:22;15.20;;;6.20;;
68870;SDS011;55906;52.278;6.808;2023-07-02T09:18:58;11.68;;;5.72;;
68870;SDS011;55906;52.278;6.808;2023-07-02T09:21:26;13.90;;;6.05;;
68870;SDS011;55906;52.278;6.808;2023-07-02T09:23:54;11.93;;;6.10;;
68870;SDS011;55906;52.278;6.808;2023-07-02T09:26:20;12.18;;;6.05;;
68870;SDS011;55906;52.278;6.808;2023-07-02T09:28:48;14.75;;;5.82;;
68870;SDS011;55906;52.278;6.808;2023-07-02T09:31:14;14.00;;;6.15;;
68870;SDS011;55906;52.278;6.808;2023-07-02T09:33:42;11.52;;;6.00;;
68870;SDS011;55906;52.278;6.808;2023-07-02T09:36:10;11.65;;;5.63;;
68870;SDS011;55906;52.278;6.808;2023-07-02T09:38:37;15.00;;;6.50;;
68870;SDS011;55906;52.278;6.808;2023-07-02T09:41:06;12.00;;;5.60;;
68870;SDS011;55906;52.278;6.808;2023-07-02T09:43:34;11.88;;;5.55;;
68870;SDS011;55906;52.278;6.808;2023-07-02T09:46:01;12.85;;;5.82;;
68870;SDS011;55906;52.278;6.808;2023-07-02T09:48:28;10.48;;;4.88;;
68870;SDS011;55906;52.278;6.808;2023-07-02T09:51:00;9.93;;;5.25;;
68870;SDS011;55906;52.278;6.808;2023-07-02T09:53:30;11.50;;;4.95;;
68870;SDS011;55906;52.278;6.808;2023-07-02T09:55:57;13.05;;;4.88;;
68870;SDS011;55906;52.278;6.808;2023-07-02T09:58:26;11.68;;;5.15;;
68870;SDS011;55906;52.278;6.808;2023-07-02T10:01:10;13.75;;;5.43;;
68870;SDS011;55906;52.278;6.808;2023-07-02T10:03:57;12.55;;;5.45;;
68870;SDS011;55906;52.278;6.808;2023-07-02T10:06:24;10.02;;;4.82;;
68870;SDS011;55906;52.278;6.808;2023-07-02T10:08:55;13.23;;;5.55;;
68870;SDS011;55906;52.278;6.808;2023-07-02T10:11:32;9.52;;;5.05;;
68870;SDS011;55906;52.278;6.808;2023-07-02T10:14:00;9.63;;;4.70;;
68870;SDS011;55906;52.278;6.808;2023-07-02T10:16:27;14.30;;;5.78;;
68870;SDS011;55906;52.278;6.808;2023-07-02T10:19:07;10.93;;;5.25;;
68870;SDS011;55906;52.278;6.808;2023-07-02T10:21:34;11.75;;;5.35;;
68870;SDS011;55906;52.278;6.808;2023-07-02T10:24:09;10.50;;;5.15;;
68870;SDS011;55906;52.278;6.808;2023-07-02T10:26:37;11.57;;;5.25;;
68870;SDS011;55906;52.278;6.808;2023-07-02T10:29:04;9.13;;;5.10;;
68870;SDS011;55906;52.278;6.808;2023-07-02T10:31:32;11.57;;;4.95;;
68870;SDS011;55906;52.278;6.808;2023-07-02T10:33:59;11.00;;;4.82;;
68870;SDS011;55906;52.278;6.808;2023-07-02T10:36:26;9.45;;;4.53;;
68870;SDS011;55906;52.278;6.808;2023-07-02T10:39:00;12.15;;;4.93;;
68870;SDS011;55906;52.278;6.808;2023-07-02T10:41:30;11.85;;;4.80;;
68870;SDS011;55906;52.278;6.808;2023-07-02T10:44:07;10.52;;;4.82;;
68870;SDS011;55906;52.278;6.808;2023-07-02T10:46:34;9.98;;;4.80;;
68870;SDS011;55906;52.278;6.808;2023-07-02T10:49:08;11.48;;;5.10;;
68870;SDS011;55906;52.278;6.808;2023-07-02T10:51:36;9.88;;;4.78;;
68870;SDS011;55906;52.278;6.808;2023-07-02T10:54:03;11.43;;;4.45;;
68870;SDS011;55906;52.278;6.808;2023-07-02T10:56:32;10.30;;;4.97;;
68870;SDS011;55906;52.278;6.808;2023-07-02T10:58:58;9.70;;;5.32;;
68870;SDS011;55906;52.278;6.808;2023-07-02T11:01:25;9.15;;;4.60;;
68870;SDS011;55906;52.278;6.808;2023-07-02T11:04:00;12.13;;;5.72;;
68870;SDS011;55906;52.278;6.808;2023-07-02T11:06:29;12.25;;;4.93;;
68870;SDS011;55906;52.278;6.808;2023-07-02T11:08:57;9.93;;;4.22;;
68870;SDS011;55906;52.278;6.808;2023-07-02T11:11:24;10.70;;;5.03;;
68870;SDS011;55906;52.278;6.808;2023-07-02T11:13:52;11.65;;;4.78;;
68870;SDS011;55906;52.278;6.808;2023-07-02T11:16:20;11.40;;;4.47;;
68870;SDS011;55906;52.278;6.808;2023-07-02T11:18:49;10.43;;;4.50;;
68870;SDS011;55906;52.278;6.808;2023-07-02T11:21:16;11.05;;;4.40;;
68870;SDS011;55906;52.278;6.808;2023-07-02T11:23:42;9.75;;;4.45;;
68870;SDS011;55906;52.278;6.808;2023-07-02T11:26:09;10.52;;;5.00;;
68870;SDS011;55906;52.278;6.808;2023-07-02T11:28:36;12.18;;;4.60;;
68870;SDS011;55906;52.278;6.808;2023-07-02T11:31:14;10.68;;;4.75;;
68870;SDS011;55906;52.278;6.808;2023-07-02T11:33:50;9.13;;;4.25;;
68870;SDS011;55906;52.278;6.808;2023-07-02T11:36:19;7.57;;;4.30;;
68870;SDS011;55906;52.278;6.808;2023-07-02T11:38:47;9.98;;;4.10;;
68870;SDS011;55906;52.278;6.808;2023-07-02T11:41:15;9.80;;;4.30;;
68870;SDS011;55906;52.278;6.808;2023-07-02T11:43:42;8.95;;;4.30;;
68870;SDS011;55906;52.278;6.808;2023-07-02T11:46:08;11.32;;;4.95;;
68870;SDS011;55906;52.278;6.808;2023-07-02T11:48:36;8.90;;;4.10;;
68870;SDS011;55906;52.278;6.808;2023-07-02T11:51:03;8.70;;;4.07;;
68870;SDS011;55906;52.278;6.808;2023-07-02T11:53:29;11.77;;;3.80;;
68870;SDS011;55906;52.278;6.808;2023-07-02T11:55:56;9.65;;;3.88;;
68870;SDS011;55906;52.278;6.808;2023-07-02T11:58:23;7.43;;;3.90;;
68870;SDS011;55906;52.278;6.808;2023-07-02T12:00:49;8.90;;;4.03;;
68870;SDS011;55906;52.278;6.808;2023-07-02T12:03:16;8.60;;;3.40;;
68870;SDS011;55906;52.278;6.808;2023-07-02T12:05:44;8.13;;;3.88;;
68870;SDS011;55906;52.278;6.808;2023-07-02T12:08:11;9.77;;;3.88;;
68870;SDS011;55906;52.278;6.808;2023-07-02T12:10:38;10.93;;;3.70;;
68870;SDS011;55906;52.278;6.808;2023-07-02T12:13:05;7.20;;;3.40;;
68870;SDS011;55906;52.278;6.808;2023-07-02T12:15:31;8.00;;;3.47;;
68870;SDS011;55906;52.278;6.808;2023-07-02T12:17:58;8.70;;;3.47;;
68870;SDS011;55906;52.278;6.808;2023-07-02T12:20:24;6.00;;;2.93;;
68870;SDS011;55906;52.278;6.808;2023-07-02T12:22:52;6.68;;;2.88;;
68870;SDS011;55906;52.278;6.808;2023-07-02T12:25:19;7.20;;;2.90;;
68870;SDS011;55906;52.278;6.808;2023-07-02T12:27:46;6.97;;;3.25;;
68870;SDS011;55906;52.278;6.808;2023-07-02T12:30:13;8.00;;;2.90;;
68870;SDS011;55906;52.278;6.808;2023-07-02T12:32:42;8.30;;;2.97;;
68870;SDS011;55906;52.278;6.808;2023-07-02T12:35:09;8.25;;;3.10;;
68870;SDS011;55906;52.278;6.808;2023-07-02T12:37:42;6.80;;;3.08;;
68870;SDS011;55906;52.278;6.808;2023-07-02T12:40:11;9.00;;;3.03;;
68870;SDS011;55906;52.278;6.808;2023-07-02T12:42:38;6.38;;;2.90;;
68870;SDS011;55906;52.278;6.808;2023-07-02T12:45:05;6.33;;;2.67;;
68870;SDS011;55906;52.278;6.808;2023-07-02T12:47:33;7.25;;;2.97;;
68870;SDS011;55906;52.278;6.808;2023-07-02T12:49:59;7.72;;;3.40;;
68870;SDS011;55906;52.278;6.808;2023-07-02T12:52:27;5.90;;;2.70;;
68870;SDS011;55906;52.278;6.808;2023-07-02T12:54:54;7.78;;;3.08;;
68870;SDS011;55906;52.278;6.808;2023-07-02T12:57:22;6.83;;;3.07;;
68870;SDS011;55906;52.278;6.808;2023-07-02T12:59:49;7.35;;;2.90;;
68870;SDS011;55906;52.278;6.808;2023-07-02T13:02:16;8.25;;;3.22;;
68870;SDS011;55906;52.278;6.808;2023-07-02T13:04:42;8.60;;;3.10;;
68870;SDS011;55906;52.278;6.808;2023-07-02T13:07:09;7.80;;;3.17;;
68870;SDS011;55906;52.278;6.808;2023-07-02T13:09:36;6.68;;;3.20;;
68870;SDS011;55906;52.278;6.808;2023-07-02T13:12:02;10.25;;;3.50;;
68870;SDS011;55906;52.278;6.808;2023-07-02T13:14:31;9.50;;;3.30;;
68870;SDS011;55906;52.278;6.808;2023-07-02T13:16:58;7.18;;;2.88;;
68870;SDS011;55906;52.278;6.808;2023-07-02T13:19:25;8.50;;;3.63;;
68870;SDS011;55906;52.278;6.808;2023-07-02T13:21:52;7.90;;;3.28;;
68870;SDS011;55906;52.278;6.808;2023-07-02T13:24:18;7.55;;;3.40;;
68870;SDS011;55906;52.278;6.808;2023-07-02T13:26:45;8.38;;;3.60;;
68870;SDS011;55906;52.278;6.808;2023-07-02T13:29:12;8.38;;;3.20;;
68870;SDS011;55906;52.278;6.808;2023-07-02T13:31:39;8.10;;;3.45;;
68870;SDS011;55906;52.278;6.808;2023-07-02T13:34:06;6.53;;;3.23;;
68870;SDS011;55906;52.278;6.808;2023-07-02T13:36:33;8.43;;;3.65;;
68870;SDS011;55906;52.278;6.808;2023-07-02T13:38:59;9.80;;;3.83;;
68870;SDS011;55906;52.278;6.808;2023-07-02T13:41:27;7.55;;;3.47;;
68870;SDS011;55906;52.278;6.808;2023-07-02T13:43:55;7.07;;;3.60;;
68870;SDS011;55906;52.278;6.808;2023-07-02T13:46:22;8.23;;;3.53;;
68870;SDS011;55906;52.278;6.808;2023-07-02T13:48:50;8.02;;;3.45;;
68870;SDS011;55906;52.278;6.808;2023-07-02T13:51:16;10.95;;;3.80;;
68870;SDS011;55906;52.278;6.808;2023-07-02T13:53:44;7.32;;;3.65;;
68870;SDS011;55906;52.278;6.808;2023-07-02T13:56:10;12.77;;;3.67;;
68870;SDS011;55906;52.278;6.808;2023-07-02T13:58:57;8.60;;;3.33;;
68870;SDS011;55906;52.278;6.808;2023-07-02T14:01:25;7.25;;;3.40;;
68870;SDS011;55906;52.278;6.808;2023-07-02T14:03:52;9.32;;;3.78;;
68870;SDS011;55906;52.278;6.808;2023-07-02T14:06:19;8.80;;;3.83;;
68870;SDS011;55906;52.278;6.808;2023-07-02T14:08:46;11.85;;;3.90;;
68870;SDS011;55906;52.278;6.808;2023-07-02T14:11:12;5.95;;;3.47;;
68870;SDS011;55906;52.278;6.808;2023-07-02T14:13:39;9.75;;;3.72;;
68870;SDS011;55906;52.278;6.808;2023-07-02T14:16:07;6.75;;;3.53;;
68870;SDS011;55906;52.278;6.808;2023-07-02T14:18:33;10.77;;;4.88;;
68870;SDS011;55906;52.278;6.808;2023-07-02T14:21:00;11.65;;;4.72;;
68870;SDS011;55906;52.278;6.808;2023-07-02T14:23:28;9.23;;;4.57;;
68870;SDS011;55906;52.278;6.808;2023-07-02T14:25:55;8.20;;;3.80;;
68870;SDS011;55906;52.278;6.808;2023-07-02T14:28:22;8.70;;;3.80;;
68870;SDS011;55906;52.278;6.808;2023-07-02T14:30:55;8.50;;;4.40;;
68870;SDS011;55906;52.278;6.808;2023-07-02T14:33:24;10.68;;;4.32;;
68870;SDS011;55906;52.278;6.808;2023-07-02T14:35:50;10.52;;;4.22;;
68870;SDS011;55906;52.278;6.808;2023-07-02T14:38:17;8.90;;;3.95;;
68870;SDS011;55906;52.278;6.808;2023-07-02T14:40:44;8.77;;;4.00;;